createdAt,value
2017-09-09T00:00:21.376Z,15.09
2017-09-09T00:01:21.681Z,15.12
2017-09-09T00:02:21.669Z,15.09
2017-09-09T00:03:21.336Z,15.17
2017-09-09T00:04:21.964Z,15.19
2017-09-09T00:05:21.629Z,15.11
2017-09-09T00:06:21.939Z,15.11
2017-09-09T00:07:21.600Z,15.17
2017-09-09T00:08:21.907Z,15.13
2017-09-09T00:09:21.258Z,15.13
2017-09-09T00:10:21.561Z,15.12
2017-09-09T00:11:21.863Z,15.17
2017-09-09T00:12:21.855Z,15.13
2017-09-09T00:13:21.200Z,15.15
2017-09-09T00:14:21.248Z,15.12
2017-09-09T00:15:21.493Z,15.19
2017-09-09T00:16:21.798Z,15.12
2017-09-09T00:17:21.141Z,15.12
2017-09-09T00:18:21.449Z,15.05
2017-09-09T00:19:21.759Z,15.11
2017-09-09T00:20:21.630Z,15.09
2017-09-09T00:21:21.413Z,15.09
2017-09-09T00:22:21.719Z,15.12
2017-09-09T00:23:21.382Z,15.05
2017-09-09T00:24:21.693Z,15.03
2017-09-09T00:25:21.035Z,15.05
2017-09-09T00:26:21.346Z,15.01
2017-09-09T00:27:21.326Z,14.95
2017-09-09T00:28:21.318Z,14.99
2017-09-09T00:29:21.627Z,14.93
2017-09-09T00:30:21.613Z,14.99
2017-09-09T00:31:21.595Z,14.93
2017-09-09T00:32:21.261Z,14.95
2017-09-09T00:33:21.247Z,14.93
2017-09-09T00:34:21.235Z,14.93
2017-09-09T00:35:21.543Z,14.99
2017-09-09T00:36:21.206Z,14.9
2017-09-09T00:37:20.876Z,14.94
2017-09-09T00:38:20.862Z,14.87
2017-09-09T00:39:21.493Z,14.93
2017-09-09T00:40:21.481Z,14.91
2017-09-09T00:41:20.856Z,15.01
2017-09-09T00:42:21.456Z,15.01
2017-09-09T00:43:21.439Z,14.98
2017-09-09T00:44:21.098Z,14.81
2017-09-09T00:45:21.085Z,14.81
2017-09-09T00:46:21.067Z,14.99
2017-09-09T00:47:21.059Z,14.93
2017-09-09T00:48:21.045Z,14.75
2017-09-09T00:49:21.034Z,14.88
2017-09-09T00:50:21.026Z,14.9
2017-09-09T00:51:21.003Z,14.9
2017-09-09T00:52:20.665Z,14.91
2017-09-09T00:53:21.299Z,14.84
2017-09-09T00:54:20.959Z,14.86
2017-09-09T00:55:20.949Z,14.84
2017-09-09T00:56:20.940Z,14.88
2017-09-09T00:57:20.929Z,14.81
2017-09-09T00:58:20.907Z,14.81
2017-09-09T00:59:20.574Z,14.75
2017-09-09T01:00:20.877Z,14.81
2017-09-09T01:01:20.870Z,14.75
2017-09-09T01:02:20.533Z,14.78
2017-09-09T01:03:21.162Z,14.67
2017-09-09T01:04:20.530Z,14.69
2017-09-09T01:05:20.811Z,14.69
2017-09-09T01:06:20.798Z,14.71
2017-09-09T01:07:20.819Z,14.68
2017-09-09T01:08:20.770Z,14.54
2017-09-09T01:09:21.077Z,14.56
2017-09-09T01:10:21.066Z,14.52
2017-09-09T01:11:20.729Z,14.49
2017-09-09T01:12:20.719Z,14.47
2017-09-09T01:13:20.390Z,14.6
2017-09-09T01:14:21.011Z,14.52
2017-09-09T01:15:20.677Z,14.49
2017-09-09T01:16:20.697Z,14.49
2017-09-09T01:17:20.978Z,14.46
2017-09-09T01:18:20.633Z,14.49
2017-09-09T01:19:20.623Z,14.34
2017-09-09T01:20:20.605Z,14.37
2017-09-09T01:21:20.594Z,14.43
2017-09-09T01:22:20.581Z,14.32
2017-09-09T01:23:20.573Z,14.34
2017-09-09T01:24:20.875Z,14.19
2017-09-09T01:25:20.888Z,14.29
2017-09-09T01:26:20.529Z,14.2
2017-09-09T01:27:20.830Z,14.27
2017-09-09T01:28:20.498Z,14.2
2017-09-09T01:29:20.485Z,14.24
2017-09-09T01:30:20.470Z,14.17
2017-09-09T01:31:20.452Z,14.28
2017-09-09T01:32:20.758Z,14.25
2017-09-09T01:33:20.429Z,14.25
2017-09-09T01:34:20.411Z,14.19
2017-09-09T01:35:20.725Z,14.25
2017-09-09T01:36:20.704Z,14.2
2017-09-09T01:37:20.694Z,14.16
2017-09-09T01:38:20.682Z,14.17
2017-09-09T01:39:20.350Z,14.21
2017-09-09T01:40:20.005Z,14.16
2017-09-09T01:41:20.636Z,14.17
2017-09-09T01:42:19.978Z,14.12
2017-09-09T01:43:20.285Z,14.2
2017-09-09T01:44:20.276Z,14.16
2017-09-09T01:45:20.577Z,14.07
2017-09-09T01:46:20.566Z,14.09
2017-09-09T01:47:20.232Z,14.07
2017-09-09T01:48:20.550Z,14.1
2017-09-09T01:49:19.886Z,14.04
2017-09-09T01:50:20.190Z,14.13
2017-09-09T01:51:19.849Z,14.04
2017-09-09T01:52:20.162Z,14.13
2017-09-09T01:53:20.144Z,14.01
2017-09-09T01:54:20.130Z,14.12
2017-09-09T01:55:20.121Z,14.01
2017-09-09T01:56:20.423Z,14.01
2017-09-09T01:57:20.087Z,14.06
2017-09-09T01:58:20.079Z,13.98
2017-09-09T01:59:20.384Z,13.98
2017-09-09T02:00:20.044Z,14.01
2017-09-09T02:01:20.037Z,13.94
2017-09-09T02:02:20.019Z,13.99
2017-09-09T02:03:19.684Z,13.99
2017-09-09T02:04:19.998Z,13.98
2017-09-09T02:05:20.297Z,13.92
2017-09-09T02:06:20.014Z,13.91
2017-09-09T02:07:20.274Z,13.83
2017-09-09T02:08:19.935Z,13.91
2017-09-09T02:09:19.928Z,13.8
2017-09-09T02:10:19.908Z,13.77
2017-09-09T02:11:20.221Z,13.83
2017-09-09T02:12:19.562Z,13.84
2017-09-09T02:13:19.872Z,13.84
2017-09-09T02:14:20.190Z,13.87
2017-09-09T02:15:19.513Z,13.81
2017-09-09T02:16:20.145Z,13.84
2017-09-09T02:17:19.805Z,13.77
2017-09-09T02:18:19.800Z,13.83
2017-09-09T02:19:19.781Z,13.77
2017-09-09T02:20:20.094Z,13.83
2017-09-09T02:21:19.433Z,13.79
2017-09-09T02:22:20.060Z,13.74
2017-09-09T02:23:19.725Z,13.88
2017-09-09T02:24:19.716Z,13.91
2017-09-09T02:25:19.703Z,13.89
2017-09-09T02:26:19.687Z,13.94
2017-09-09T02:27:19.676Z,13.92
2017-09-09T02:28:19.677Z,13.88
2017-09-09T02:29:19.644Z,13.88
2017-09-09T02:30:19.952Z,13.88
2017-09-09T02:31:19.719Z,13.96
2017-09-09T02:32:19.282Z,13.92
2017-09-09T02:33:19.904Z,13.88
2017-09-09T02:34:19.573Z,13.89
2017-09-09T02:35:19.563Z,13.99
2017-09-09T02:36:19.547Z,13.96
2017-09-09T02:37:19.853Z,13.95
2017-09-09T02:38:19.192Z,13.94
2017-09-09T02:39:19.509Z,13.92
2017-09-09T02:40:19.485Z,13.99
2017-09-09T02:41:19.478Z,13.95
2017-09-09T02:42:19.142Z,13.98
2017-09-09T02:43:19.128Z,13.95
2017-09-09T02:44:19.439Z,13.91
2017-09-09T02:45:19.095Z,13.95
2017-09-09T02:46:19.731Z,13.88
2017-09-09T02:47:19.399Z,13.91
2017-09-09T02:48:19.380Z,13.8
2017-09-09T02:49:19.048Z,13.83
2017-09-09T02:50:19.036Z,13.87
2017-09-09T02:51:19.656Z,13.83
2017-09-09T02:52:19.343Z,13.8
2017-09-09T02:53:19.313Z,13.87
2017-09-09T02:54:19.299Z,13.91
2017-09-09T02:55:19.287Z,13.81
2017-09-09T02:56:18.948Z,13.91
2017-09-09T02:57:19.265Z,13.92
2017-09-09T02:58:19.563Z,13.94
2017-09-09T02:59:19.550Z,13.96
2017-09-09T03:00:18.894Z,13.94
2017-09-09T03:01:19.202Z,13.94
2017-09-09T03:02:19.188Z,13.99
2017-09-09T03:03:19.177Z,13.99
2017-09-09T03:04:19.165Z,13.91
2017-09-09T03:05:18.823Z,13.91
2017-09-09T03:06:18.814Z,13.99
2017-09-09T03:07:19.440Z,13.94
2017-09-09T03:08:19.107Z,13.95
2017-09-09T03:09:19.107Z,13.98
2017-09-09T03:10:19.400Z,13.95
2017-09-09T03:11:19.390Z,14.01
2017-09-09T03:12:19.052Z,13.94
2017-09-09T03:13:19.035Z,14.01
2017-09-09T03:14:19.357Z,14.06
2017-09-09T03:15:18.688Z,14.06
2017-09-09T03:16:19.318Z,14.06
2017-09-09T03:17:18.662Z,14.02
2017-09-09T03:18:18.970Z,13.96
2017-09-09T03:19:19.276Z,13.95
2017-09-09T03:20:18.621Z,14.02
2017-09-09T03:21:19.253Z,13.92
2017-09-09T03:22:18.910Z,13.92
2017-09-09T03:23:18.577Z,13.98
2017-09-09T03:24:19.208Z,13.98
2017-09-09T03:25:19.208Z,13.92
2017-09-09T03:26:19.175Z,13.92
2017-09-09T03:27:18.846Z,14.01
2017-09-09T03:28:19.162Z,13.81
2017-09-09T03:29:18.822Z,13.92
2017-09-09T03:30:19.127Z,13.92
2017-09-09T03:31:18.803Z,13.91
2017-09-09T03:32:18.464Z,13.87
2017-09-09T03:33:18.769Z,13.88
2017-09-09T03:34:18.432Z,13.89
2017-09-09T03:35:18.416Z,13.84
2017-09-09T03:36:18.403Z,13.84
2017-09-09T03:37:18.715Z,13.79
2017-09-09T03:38:18.703Z,13.95
2017-09-09T03:39:18.687Z,13.88
2017-09-09T03:40:18.673Z,13.89
2017-09-09T03:41:18.658Z,13.91
2017-09-09T03:42:18.644Z,13.89
2017-09-09T03:43:18.307Z,13.91
2017-09-09T03:44:18.614Z,13.95
2017-09-09T03:45:18.603Z,13.96
2017-09-09T03:46:18.269Z,13.94
2017-09-09T03:47:18.573Z,13.96
2017-09-09T03:48:18.566Z,13.99
2017-09-09T03:49:18.546Z,13.91
2017-09-09T03:50:18.849Z,13.95
2017-09-09T03:51:18.521Z,13.87
2017-09-09T03:52:18.826Z,13.8
2017-09-09T03:53:18.815Z,13.81
2017-09-09T03:54:18.804Z,13.81
2017-09-09T03:55:18.466Z,13.83
2017-09-09T03:56:18.462Z,13.83
2017-09-09T03:57:18.761Z,13.87
2017-09-09T03:58:18.427Z,13.81
2017-09-09T03:59:18.731Z,13.83
2017-09-09T04:00:18.077Z,13.88
2017-09-09T04:01:18.388Z,13.79
2017-09-09T04:02:18.372Z,13.79
2017-09-09T04:03:18.355Z,13.81
2017-09-09T04:04:18.023Z,13.8
2017-09-09T04:05:18.331Z,13.81
2017-09-09T04:06:18.637Z,13.81
2017-09-09T04:07:18.309Z,13.83
2017-09-09T04:08:18.289Z,13.81
2017-09-09T04:09:18.280Z,13.79
2017-09-09T04:10:18.592Z,13.91
2017-09-09T04:11:18.570Z,13.87
2017-09-09T04:12:18.562Z,13.81
2017-09-09T04:13:18.544Z,13.91
2017-09-09T04:14:18.209Z,13.8
2017-09-09T04:15:18.207Z,13.84
2017-09-09T04:16:18.499Z,13.81
2017-09-09T04:17:18.171Z,13.88
2017-09-09T04:18:18.482Z,13.94
2017-09-09T04:19:18.140Z,13.83
2017-09-09T04:20:18.451Z,13.76
2017-09-09T04:21:18.641Z,13.79
2017-09-09T04:22:18.099Z,13.81
2017-09-09T04:23:17.768Z,13.83
2017-09-09T04:24:17.755Z,13.8
2017-09-09T04:25:18.387Z,13.81
2017-09-09T04:26:17.723Z,13.84
2017-09-09T04:27:18.030Z,13.79
2017-09-09T04:28:18.019Z,13.74
2017-09-09T04:29:17.681Z,13.79
2017-09-09T04:30:18.310Z,13.83
2017-09-09T04:31:17.656Z,13.8
2017-09-09T04:32:17.963Z,13.83
2017-09-09T04:33:17.949Z,13.8
2017-09-09T04:34:17.945Z,13.88
2017-09-09T04:35:17.921Z,13.89
2017-09-09T04:36:17.906Z,13.91
2017-09-09T04:37:17.901Z,13.87
2017-09-09T04:38:18.202Z,13.89
2017-09-09T04:39:17.547Z,13.92
2017-09-09T04:40:17.533Z,13.94
2017-09-09T04:41:18.166Z,13.96
2017-09-09T04:42:17.838Z,13.91
2017-09-09T04:43:17.817Z,13.95
2017-09-09T04:44:17.800Z,13.98
2017-09-09T04:45:18.111Z,13.94
2017-09-09T04:46:17.769Z,13.94
2017-09-09T04:47:17.761Z,13.94
2017-09-09T04:48:18.068Z,13.95
2017-09-09T04:49:18.050Z,13.94
2017-09-09T04:50:17.721Z,13.99
2017-09-09T04:51:18.030Z,13.99
2017-09-09T04:52:17.371Z,14.02
2017-09-09T04:53:17.678Z,13.92
2017-09-09T04:54:17.346Z,13.95
2017-09-09T04:55:17.678Z,13.92
2017-09-09T04:56:17.962Z,13.98
2017-09-09T04:57:17.824Z,13.98
2017-09-09T04:58:17.614Z,13.98
2017-09-09T04:59:17.600Z,13.94
2017-09-09T05:00:17.587Z,13.92
2017-09-09T05:01:17.578Z,13.94
2017-09-09T05:02:17.876Z,14.01
2017-09-09T05:03:17.747Z,14.02
2017-09-09T05:04:17.525Z,13.98
2017-09-09T05:05:17.514Z,14.02
2017-09-09T05:06:17.179Z,13.98
2017-09-09T05:07:17.167Z,14.07
2017-09-09T05:08:17.485Z,14.09
2017-09-09T05:09:17.146Z,14.01
2017-09-09T05:10:17.464Z,13.96
2017-09-09T05:11:17.441Z,14.07
2017-09-09T05:12:17.425Z,14.06
2017-09-09T05:13:17.086Z,14.04
2017-09-09T05:14:17.711Z,13.98
2017-09-09T05:15:17.387Z,13.94
2017-09-09T05:16:17.704Z,13.99
2017-09-09T05:17:17.352Z,13.95
2017-09-09T05:18:17.352Z,13.95
2017-09-09T05:19:17.331Z,13.96
2017-09-09T05:20:17.311Z,13.98
2017-09-09T05:21:16.977Z,13.95
2017-09-09T05:22:17.607Z,13.91
2017-09-09T05:23:16.953Z,13.92
2017-09-09T05:24:17.259Z,13.87
2017-09-09T05:25:17.573Z,13.91
2017-09-09T05:26:17.233Z,13.95
2017-09-09T05:27:16.955Z,13.83
2017-09-09T05:28:16.884Z,13.88
2017-09-09T05:29:16.866Z,13.88
2017-09-09T05:30:17.177Z,13.87
2017-09-09T05:31:17.163Z,13.89
2017-09-09T05:32:17.148Z,13.99
2017-09-09T05:33:17.147Z,13.96
2017-09-09T05:34:17.117Z,13.95
2017-09-09T05:35:17.120Z,13.99
2017-09-09T05:36:16.782Z,13.88
2017-09-09T05:37:17.081Z,13.94
2017-09-09T05:38:16.750Z,13.88
2017-09-09T05:39:17.380Z,13.91
2017-09-09T05:40:16.719Z,13.91
2017-09-09T05:41:16.701Z,13.91
2017-09-09T05:42:17.027Z,13.87
2017-09-09T05:43:17.026Z,13.84
2017-09-09T05:44:17.304Z,13.87
2017-09-09T05:45:16.968Z,13.87
2017-09-09T05:46:16.978Z,13.91
2017-09-09T05:47:17.280Z,13.81
2017-09-09T05:48:17.270Z,13.8
2017-09-09T05:49:16.600Z,13.8
2017-09-09T05:50:16.899Z,13.89
2017-09-09T05:51:16.897Z,13.83
2017-09-09T05:52:17.194Z,13.8
2017-09-09T05:53:16.542Z,13.87
2017-09-09T05:54:16.529Z,13.8
2017-09-09T05:55:17.157Z,13.77
2017-09-09T05:56:17.142Z,13.81
2017-09-09T05:57:16.801Z,13.8
2017-09-09T05:58:16.472Z,13.79
2017-09-09T05:59:16.456Z,13.8
2017-09-09T06:00:16.446Z,13.84
2017-09-09T06:01:17.080Z,13.89
2017-09-09T06:02:17.059Z,13.91
2017-09-09T06:03:17.039Z,13.83
2017-09-09T06:04:16.390Z,13.83
2017-09-09T06:05:16.693Z,13.81
2017-09-09T06:06:17.015Z,13.84
2017-09-09T06:07:16.374Z,13.83
2017-09-09T06:08:16.977Z,13.95
2017-09-09T06:09:16.645Z,13.81
2017-09-09T06:10:16.629Z,13.77
2017-09-09T06:11:16.936Z,13.8
2017-09-09T06:12:16.596Z,13.81
2017-09-09T06:13:16.906Z,13.92
2017-09-09T06:14:16.572Z,13.88
2017-09-09T06:15:16.564Z,13.8
2017-09-09T06:16:16.945Z,13.79
2017-09-09T06:17:16.888Z,13.81
2017-09-09T06:18:16.847Z,13.94
2017-09-09T06:19:16.195Z,13.83
2017-09-09T06:20:16.500Z,13.81
2017-09-09T06:21:16.353Z,13.88
2017-09-09T06:22:16.827Z,13.8
2017-09-09T06:23:16.448Z,13.79
2017-09-09T06:24:16.430Z,13.81
2017-09-09T06:25:16.428Z,13.89
2017-09-09T06:26:16.732Z,13.8
2017-09-09T06:27:16.392Z,13.8
2017-09-09T06:28:16.373Z,13.84
2017-09-09T06:29:16.043Z,13.83
2017-09-09T06:30:16.033Z,13.83
2017-09-09T06:31:16.334Z,13.81
2017-09-09T06:32:16.050Z,13.84
2017-09-09T06:33:16.305Z,13.83
2017-09-09T06:34:16.615Z,13.84
2017-09-09T06:35:16.280Z,13.81
2017-09-09T06:36:16.584Z,13.83
2017-09-09T06:37:16.573Z,13.81
2017-09-09T06:38:15.919Z,13.8
2017-09-09T06:39:16.229Z,13.8
2017-09-09T06:40:16.554Z,13.87
2017-09-09T06:41:16.196Z,13.92
2017-09-09T06:42:16.185Z,13.77
2017-09-09T06:43:16.166Z,13.94
2017-09-09T06:44:16.158Z,13.83
2017-09-09T06:45:16.144Z,13.88
2017-09-09T06:46:15.809Z,13.77
2017-09-09T06:47:16.120Z,13.84
2017-09-09T06:48:16.111Z,13.81
2017-09-09T06:49:16.090Z,13.84
2017-09-09T06:50:15.750Z,13.79
2017-09-09T06:51:16.063Z,13.81
2017-09-09T06:52:16.048Z,13.76
2017-09-09T06:53:16.353Z,13.79
2017-09-09T06:54:16.340Z,13.89
2017-09-09T06:55:16.326Z,13.79
2017-09-09T06:56:15.670Z,13.8
2017-09-09T06:57:16.302Z,13.8
2017-09-09T06:58:15.959Z,13.92
2017-09-09T06:59:16.272Z,13.84
2017-09-09T07:00:16.272Z,13.81
2017-09-09T07:01:15.925Z,13.88
2017-09-09T07:02:15.583Z,13.87
2017-09-09T07:03:15.573Z,13.91
2017-09-09T07:04:16.201Z,13.83
2017-09-09T07:05:15.547Z,13.92
2017-09-09T07:06:15.863Z,13.89
2017-09-09T07:07:15.520Z,13.95
2017-09-09T07:08:15.828Z,13.91
2017-09-09T07:09:15.499Z,13.87
2017-09-09T07:10:16.121Z,13.89
2017-09-09T07:11:16.105Z,13.94
2017-09-09T07:12:16.090Z,13.95
2017-09-09T07:13:15.751Z,13.95
2017-09-09T07:14:16.094Z,13.92
2017-09-09T07:15:16.050Z,14.01
2017-09-09T07:16:16.032Z,13.99
2017-09-09T07:17:15.383Z,14.06
2017-09-09T07:18:15.367Z,14.12
2017-09-09T07:19:15.993Z,14.09
2017-09-09T07:20:15.658Z,14.13
2017-09-09T07:21:15.329Z,14.02
2017-09-09T07:22:15.961Z,14.09
2017-09-09T07:23:15.949Z,14.27
2017-09-09T07:24:15.289Z,14.27
2017-09-09T07:25:15.923Z,14.32
2017-09-09T07:26:15.582Z,14.27
2017-09-09T07:27:15.244Z,14.28
2017-09-09T07:28:15.874Z,14.17
2017-09-09T07:29:15.672Z,14.28
2017-09-09T07:30:15.205Z,14.28
2017-09-09T07:31:15.828Z,14.28
2017-09-09T07:32:15.490Z,14.29
2017-09-09T07:33:15.501Z,14.28
2017-09-09T07:34:15.648Z,14.37
2017-09-09T07:35:15.471Z,14.37
2017-09-09T07:36:15.442Z,14.35
2017-09-09T07:37:15.424Z,14.42
2017-09-09T07:38:15.090Z,14.34
2017-09-09T07:39:15.077Z,14.44
2017-09-09T07:40:15.720Z,14.43
2017-09-09T07:41:15.377Z,14.39
2017-09-09T07:42:15.035Z,14.37
2017-09-09T07:43:15.700Z,14.46
2017-09-09T07:44:15.337Z,14.42
2017-09-09T07:45:15.639Z,14.43
2017-09-09T07:46:15.305Z,14.44
2017-09-09T07:47:15.293Z,14.54
2017-09-09T07:48:14.964Z,14.54
2017-09-09T07:49:15.584Z,14.53
2017-09-09T07:50:15.260Z,14.52
2017-09-09T07:51:15.565Z,14.52
2017-09-09T07:52:15.224Z,14.54
2017-09-09T07:53:15.216Z,14.56
2017-09-09T07:54:15.202Z,14.5
2017-09-09T07:55:15.188Z,14.54
2017-09-09T07:56:15.499Z,14.47
2017-09-09T07:57:15.165Z,14.5
2017-09-09T07:58:15.469Z,14.52
2017-09-09T07:59:15.139Z,14.57
2017-09-09T08:00:15.120Z,14.61
2017-09-09T08:01:15.105Z,14.5
2017-09-09T08:02:15.099Z,14.54
2017-09-09T08:03:15.080Z,14.68
2017-09-09T08:04:15.391Z,14.71
2017-09-09T08:05:15.058Z,14.71
2017-09-09T08:06:14.721Z,14.65
2017-09-09T08:07:15.352Z,14.65
2017-09-09T08:08:15.019Z,14.52
2017-09-09T08:09:14.680Z,14.61
2017-09-09T08:10:15.310Z,14.6
2017-09-09T08:11:14.657Z,14.56
2017-09-09T08:12:14.961Z,14.65
2017-09-09T08:13:14.951Z,14.65
2017-09-09T08:14:14.938Z,14.78
2017-09-09T08:15:14.933Z,14.81
2017-09-09T08:16:14.596Z,14.93
2017-09-09T08:17:14.581Z,15.17
2017-09-09T08:18:14.911Z,15.21
2017-09-09T08:19:14.882Z,15.23
2017-09-09T08:20:14.860Z,15.23
2017-09-09T08:21:15.381Z,15.13
2017-09-09T08:22:14.514Z,15.21
2017-09-09T08:23:15.151Z,15.11
2017-09-09T08:24:15.136Z,15.15
2017-09-09T08:25:15.122Z,15.23
2017-09-09T08:26:14.789Z,15.24
2017-09-09T08:27:15.098Z,15.26
2017-09-09T08:28:14.764Z,15.3
2017-09-09T08:29:14.759Z,15.3
2017-09-09T08:30:15.060Z,15.3
2017-09-09T08:31:14.731Z,15.31
2017-09-09T08:32:14.732Z,15.35
2017-09-09T08:33:14.695Z,15.31
2017-09-09T08:34:14.698Z,15.21
2017-09-09T08:35:14.359Z,15.27
2017-09-09T08:36:14.674Z,15.21
2017-09-09T08:37:14.653Z,15.2
2017-09-09T08:38:14.962Z,15.17
2017-09-09T08:39:14.957Z,15.09
2017-09-09T08:40:14.938Z,14.94
2017-09-09T08:41:14.612Z,15.01
2017-09-09T08:42:14.268Z,14.93
2017-09-09T08:43:14.902Z,14.91
2017-09-09T08:44:14.244Z,14.94
2017-09-09T08:45:14.869Z,14.88
2017-09-09T08:46:14.223Z,14.88
2017-09-09T08:47:14.531Z,14.81
2017-09-09T08:48:14.839Z,14.71
2017-09-09T08:49:14.184Z,14.81
2017-09-09T08:50:14.167Z,14.74
2017-09-09T08:51:14.158Z,14.83
2017-09-09T08:52:14.787Z,15.05
2017-09-09T08:53:14.459Z,15.05
2017-09-09T08:54:14.440Z,15.02
2017-09-09T08:55:14.438Z,15.02
2017-09-09T08:56:14.424Z,14.9
2017-09-09T08:57:14.731Z,14.91
2017-09-09T08:58:14.067Z,15.03
2017-09-09T08:59:14.057Z,15.11
2017-09-09T09:00:14.688Z,15.11
2017-09-09T09:01:14.059Z,15.11
2017-09-09T09:02:14.656Z,14.95
2017-09-09T09:03:14.661Z,15.01
2017-09-09T09:04:14.315Z,14.94
2017-09-09T09:05:14.307Z,14.8
2017-09-09T09:06:14.290Z,14.87
2017-09-09T09:07:14.593Z,14.86
2017-09-09T09:08:14.584Z,14.8
2017-09-09T09:09:14.257Z,14.78
2017-09-09T09:10:14.562Z,14.68
2017-09-09T09:11:14.223Z,14.65
2017-09-09T09:12:14.529Z,14.8
2017-09-09T09:13:14.200Z,14.71
2017-09-09T09:14:14.184Z,14.74
2017-09-09T09:15:14.183Z,14.93
2017-09-09T09:16:14.477Z,14.88
2017-09-09T09:17:14.467Z,14.95
2017-09-09T09:18:14.134Z,14.93
2017-09-09T09:19:14.125Z,14.94
2017-09-09T09:20:14.428Z,14.9
2017-09-09T09:21:14.099Z,14.93
2017-09-09T09:22:14.082Z,14.83
2017-09-09T09:23:14.394Z,14.98
2017-09-09T09:24:14.050Z,14.83
2017-09-09T09:25:14.042Z,14.87
2017-09-09T09:26:14.031Z,14.86
2017-09-09T09:27:13.696Z,14.91
2017-09-09T09:28:14.324Z,14.83
2017-09-09T09:29:14.049Z,14.83
2017-09-09T09:30:14.306Z,14.8
2017-09-09T09:31:13.965Z,14.78
2017-09-09T09:32:13.634Z,14.75
2017-09-09T09:33:13.937Z,14.81
2017-09-09T09:34:14.243Z,14.69
2017-09-09T09:35:14.233Z,14.8
2017-09-09T09:36:13.897Z,14.65
2017-09-09T09:37:13.883Z,14.69
2017-09-09T09:38:14.204Z,14.65
2017-09-09T09:39:13.855Z,14.71
2017-09-09T09:40:13.529Z,14.67
2017-09-09T09:41:13.834Z,14.68
2017-09-09T09:42:13.825Z,14.72
2017-09-09T09:43:13.493Z,14.71
2017-09-09T09:44:13.795Z,14.72
2017-09-09T09:45:13.783Z,14.69
2017-09-09T09:46:13.775Z,14.74
2017-09-09T09:47:13.439Z,14.9
2017-09-09T09:48:14.061Z,14.94
2017-09-09T09:49:13.403Z,15.06
2017-09-09T09:50:14.044Z,15.24
2017-09-09T09:51:14.028Z,15.33
2017-09-09T09:52:13.395Z,15.54
2017-09-09T09:53:13.675Z,15.66
2017-09-09T09:54:13.994Z,15.72
2017-09-09T09:55:13.654Z,15.63
2017-09-09T09:56:13.315Z,15.6
2017-09-09T09:57:13.878Z,15.59
2017-09-09T09:58:13.622Z,15.61
2017-09-09T09:59:13.932Z,15.75
2017-09-09T10:00:13.587Z,15.88
2017-09-09T10:01:13.891Z,16.06
2017-09-09T10:02:13.564Z,16.09
2017-09-09T10:03:13.872Z,16.15
2017-09-09T10:04:13.858Z,16.16
2017-09-09T10:05:13.847Z,16.12
2017-09-09T10:06:13.526Z,16.03
2017-09-09T10:07:13.832Z,16.15
2017-09-09T10:08:13.172Z,16.2
2017-09-09T10:09:13.478Z,16.04
2017-09-09T10:10:13.798Z,16.06
2017-09-09T10:11:13.457Z,16.07
2017-09-09T10:12:13.451Z,15.97
2017-09-09T10:29:46.265Z,16.22
2017-09-09T10:30:46.568Z,16.25
2017-09-09T10:31:46.229Z,16.4
2017-09-09T10:32:45.891Z,16.56
2017-09-09T10:33:46.192Z,16.7
2017-09-09T10:34:46.206Z,16.86
2017-09-09T10:35:45.850Z,16.74
2017-09-09T10:36:45.843Z,16.83
2017-09-09T10:37:45.826Z,16.8
2017-09-09T10:38:46.131Z,16.9
2017-09-09T10:39:46.435Z,16.9
2017-09-09T10:40:46.442Z,17.06
2017-09-09T10:41:46.418Z,17.08
2017-09-09T10:42:46.086Z,17.17
2017-09-09T10:43:46.071Z,17.22
2017-09-09T10:44:46.070Z,17.15
2017-09-09T10:45:46.377Z,17.33
2017-09-09T10:46:46.057Z,17.35
2017-09-09T10:47:45.704Z,17.36
2017-09-09T10:48:45.745Z,17.17
2017-09-09T10:49:45.686Z,17.1
2017-09-09T10:50:46.321Z,16.93
2017-09-09T10:51:46.306Z,16.81
2017-09-09T10:52:45.652Z,16.81
2017-09-09T10:53:46.287Z,16.71
2017-09-09T10:54:46.389Z,16.71
2017-09-09T10:55:45.963Z,16.8
2017-09-09T10:56:46.256Z,16.74
2017-09-09T10:57:45.921Z,16.88
2017-09-09T10:58:46.238Z,16.86
2017-09-09T10:59:45.903Z,16.85
2017-09-09T11:00:45.907Z,17
2017-09-09T11:01:45.884Z,16.86
2017-09-09T11:02:45.869Z,16.75
2017-09-09T11:03:45.863Z,16.86
2017-09-09T11:04:45.850Z,16.65
2017-09-09T11:05:45.517Z,16.74
2017-09-09T11:06:45.508Z,16.68
2017-09-09T11:07:45.820Z,16.95
2017-09-09T11:08:45.812Z,16.9
2017-09-09T11:09:45.811Z,16.89
2017-09-09T11:10:45.800Z,16.86
2017-09-09T11:11:45.780Z,16.81
2017-09-09T11:12:46.104Z,16.73
2017-09-09T11:13:46.087Z,16.7
2017-09-09T11:14:46.076Z,16.7
2017-09-09T11:15:45.754Z,16.71
2017-09-09T11:16:46.085Z,16.68
2017-09-09T11:17:46.056Z,16.71
2017-09-09T11:18:45.713Z,17
2017-09-09T11:19:45.378Z,17.07
2017-09-09T11:20:45.691Z,16.99
2017-09-09T11:21:46.003Z,17.03
2017-09-09T11:22:45.816Z,17.07
2017-09-09T11:23:46.085Z,17.08
2017-09-09T11:24:45.792Z,16.99
2017-09-09T11:25:45.780Z,16.93
2017-09-09T11:26:45.412Z,16.81
2017-09-09T11:27:45.728Z,16.83
2017-09-09T11:28:45.646Z,16.83
2017-09-09T11:29:45.345Z,16.8
2017-09-09T11:30:45.910Z,16.68
2017-09-09T11:31:45.905Z,16.62
2017-09-09T11:32:45.894Z,16.63
2017-09-09T11:33:45.558Z,16.5
2017-09-09T11:34:45.551Z,16.53
2017-09-09T11:35:45.864Z,16.33
2017-09-09T11:36:45.531Z,16.33
2017-09-09T11:37:45.841Z,16.27
2017-09-09T11:38:45.510Z,16.26
2017-09-09T11:39:45.181Z,16.18
2017-09-09T11:40:45.493Z,16.18
2017-09-09T11:41:45.477Z,16.11
2017-09-09T11:42:45.465Z,16.15
2017-09-09T11:43:45.459Z,16.18
2017-09-09T11:44:45.769Z,16.15
2017-09-09T11:45:45.763Z,16.06
2017-09-09T11:46:45.419Z,16.26
2017-09-09T11:47:45.617Z,16.89
2017-09-09T11:48:45.404Z,17.33
2017-09-09T11:49:45.386Z,17.7
2017-09-09T11:50:45.710Z,17.81
2017-09-09T11:51:45.369Z,17.87
2017-09-09T11:52:45.365Z,17.95
2017-09-09T11:53:45.670Z,17.82
2017-09-09T11:54:45.345Z,17.63
2017-09-09T11:55:45.360Z,17.54
2017-09-09T11:56:45.324Z,17.23
2017-09-09T11:57:44.991Z,17.08
2017-09-09T11:58:44.992Z,17.03
2017-09-09T11:59:45.631Z,16.85
2017-09-09T12:00:45.287Z,16.86
2017-09-09T12:01:44.959Z,16.63
2017-09-09T12:02:45.276Z,16.73
2017-09-09T12:03:45.590Z,16.65
2017-09-09T12:04:45.583Z,16.53
2017-09-09T12:05:44.935Z,16.6
2017-09-09T12:06:44.918Z,16.49
2017-09-09T12:07:45.225Z,16.49
2017-09-09T12:08:44.969Z,16.35
2017-09-09T12:09:45.214Z,16.31
2017-09-09T12:10:44.875Z,16.18
2017-09-09T12:11:45.517Z,16.12
2017-09-09T12:12:45.174Z,16.11
2017-09-09T12:13:45.497Z,16.06
2017-09-09T12:14:45.486Z,15.94
2017-09-09T12:15:45.181Z,15.89
2017-09-09T12:16:45.133Z,15.86
2017-09-09T12:17:45.115Z,15.78
2017-09-09T12:18:45.446Z,15.76
2017-09-09T12:19:45.109Z,15.79
2017-09-09T12:20:44.761Z,15.84
2017-09-09T12:21:45.605Z,15.85
2017-09-09T12:22:44.745Z,15.76
2017-09-09T12:23:45.369Z,15.75
2017-09-09T12:24:45.044Z,15.82
2017-09-09T12:25:45.023Z,15.89
2017-09-09T12:26:45.338Z,15.94
2017-09-09T12:27:45.004Z,16.27
2017-09-09T12:28:44.674Z,16.49
2017-09-09T12:29:44.986Z,16.88
2017-09-09T12:30:45.006Z,16.98
2017-09-09T12:31:44.958Z,17.23
2017-09-09T12:32:44.950Z,17.29
2017-09-09T12:33:45.269Z,17.64
2017-09-09T12:34:44.611Z,17.81
2017-09-09T12:35:44.921Z,17.85
2017-09-09T12:36:45.233Z,17.94
2017-09-09T12:37:44.913Z,18.09
2017-09-09T12:38:44.895Z,18.09
2017-09-09T12:39:45.209Z,18.07
2017-09-09T12:40:44.970Z,18.13
2017-09-09T12:41:44.894Z,18.06
2017-09-09T12:42:45.194Z,18.18
2017-09-09T12:43:45.178Z,18.18
2017-09-09T12:44:44.846Z,18.1
2017-09-09T12:45:45.151Z,18.57
2017-09-09T12:46:45.150Z,19.08
2017-09-09T12:47:44.811Z,19.68
2017-09-09T12:48:44.808Z,20.25
2017-09-09T12:49:44.482Z,20.56
2017-09-09T12:50:44.795Z,20.87
2017-09-09T12:51:45.112Z,20.98
2017-09-09T12:52:44.461Z,21.02
2017-09-09T12:53:45.106Z,21.11
2017-09-09T12:54:45.103Z,21.32
2017-09-09T12:55:44.776Z,21.39
2017-09-09T12:56:44.443Z,21.39
2017-09-09T12:57:45.093Z,21.69
2017-09-09T12:58:45.088Z,21.92
2017-09-09T12:59:44.437Z,22.2
2017-09-09T13:00:44.764Z,22.64
2017-09-09T13:01:44.753Z,22.9
2017-09-09T13:02:44.749Z,23.07
2017-09-09T13:03:44.748Z,23.14
2017-09-09T13:04:44.424Z,23.29
2017-09-09T13:05:44.751Z,23.27
2017-09-09T13:06:44.429Z,23.05
2017-09-09T13:07:44.743Z,23.31
2017-09-09T13:08:44.750Z,23.2
2017-09-09T13:09:44.743Z,22.86
2017-09-09T13:10:45.067Z,22.96
2017-09-09T13:11:44.746Z,23.12